100LL.CA
Aviation Fuel Pricing for Canadians
Please upgrade your browser - Tested with IE9, FireFox, Chrome, Safari

Fuel Airports Other Help
Prices Economy Info List METAR/TAF Kneeboard Help

Reference Airport: CHIBOUGAMAU/CHAPAIS, QC
N 49 46 19  W 074 31 41
Provinces to show:

CYMT CHIBOUGAMAU/CHAPAIS, QC
WEATHER
METARCYMT 221600Z AUTO 29012G17KT 270V330 9SM CLR 23/08 A3000 RMK SLP162 DENSITY ALT 2400FT
TAFTAF CYMT 221140Z 2212/2224 VRB03KT P6SM SCT120 FM221600 27007KT P6SM SCT060 RMK FCST BASED ON AUTO OBS. NXT FCST BY 221800Z
OTHER SITES

FlightAware

FltPlan

Google Maps

SkyVector
FUEL
FBO 100LL
member
100LL
public
JETA MOGAS
Opr (2024-03-27)2.320
Canada Flight Supplement - CYMT
(opens in new tab/window)


Please Send Updates!

Desktop Version ]  [ Mobile Version ]  [ Disclaimer ]